| time (UTC) | temp C | wind direction | speed KPH | gust KPH | rain 1hr cm | rain 24hr cm | rain mn cm | humidity % | barometer mb |
| 20260508054006 | 10 | 316 | 4.8 | 6.4 | 0.00 | 0.00 | 0.00 | 30 | 994.0 |
| 20260508053605 | 10 | 307 | 6.4 | 8.0 | 0.00 | 0.00 | 0.00 | 30 | 994.0 |
| 20260508053205 | 10 | 311 | 6.4 | 8.0 | 0.00 | 0.00 | 0.00 | 30 | 994.0 |
| 20260508052803 | 10 | 345 | 6.4 | 8.0 | 0.00 | 0.00 | 0.00 | 30 | 994.0 |
| 20260508052403 | 10 | 325 | 6.4 | 6.4 | 0.00 | 0.00 | 0.00 | 30 | 993.9 |
| 20260508052003 | 10 | 318 | 6.4 | 8.0 | 0.00 | 0.00 | 0.00 | 30 | 993.9 |
| 20260508051603 | 10 | 298 | 4.8 | 8.0 | 0.00 | 0.00 | 0.00 | 30 | 993.9 |
| 20260508051203 | 10 | 319 | 6.4 | 6.4 | 0.00 | 0.00 | 0.00 | 30 | 993.9 |
| 20260508050801 | 10 | 340 | 4.8 | 6.4 | 0.00 | 0.00 | 0.00 | 30 | 993.9 |
| 20260508050401 | 10 | 340 | 4.8 | 8.0 | 0.00 | 0.00 | 0.00 | 30 | 993.9 |
| 20260508050001 | 9 | 322 | 6.4 | 9.7 | 0.00 | 0.00 | 0.00 | 30 | 993.9 |
| 20260508045601 | 9 | 328 | 6.4 | 6.4 | 0.00 | 0.00 | 0.00 | 30 | 993.9 |
| 20260508045201 | 9 | 8 | 6.4 | 8.0 | 0.00 | 0.00 | 0.00 | 30 | 993.8 |
| 20260508044759 | 9 | 347 | 6.4 | 8.0 | 0.00 | 0.00 | 0.00 | 30 | 993.8 |
| 20260508044359 | 9 | 16 | 6.4 | 8.0 | 0.00 | 0.00 | 0.00 | 30 | 993.8 |
| 20260508043959 | 9 | 20 | 6.4 | 8.0 | 0.00 | 0.00 | 0.00 | 30 | 993.7 |
| 20260508043556 | 9 | 6 | 6.4 | 8.0 | 0.00 | 0.00 | 0.00 | 30 | 993.7 |
| 20260508043156 | 10 | 326 | 4.8 | 6.4 | 0.00 | 0.00 | 0.00 | 30 | 993.7 |
| 20260508042754 | 10 | 322 | 4.8 | 4.8 | 0.00 | 0.00 | 0.00 | 29 | 993.7 |
| 20260508042355 | 10 | 311 | 3.2 | 4.8 | 0.00 | 0.00 | 0.00 | 29 | 993.7 |
| 20260508041955 | 10 | 313 | 4.8 | 6.4 | 0.00 | 0.00 | 0.00 | 29 | 993.6 |
| 20260508041555 | 10 | 306 | 4.8 | 6.4 | 0.00 | 0.00 | 0.00 | 29 | 993.7 |
| 20260508041154 | 10 | 300 | 4.8 | 6.4 | 0.00 | 0.00 | 0.00 | 29 | 993.7 |
| 20260508040752 | 10 | 294 | 3.2 | 4.8 | 0.00 | 0.00 | 0.00 | 29 | 993.7 |
| 20260508040352 | 10 | 298 | 3.2 | 6.4 | 0.00 | 0.00 | 0.00 | 29 | 993.7 |
| 20260508035950 | 10 | 293 | 6.4 | 8.0 | 0.00 | 0.00 | 0.00 | 29 | 993.6 |
| 20260508035550 | 10 | 293 | 6.4 | 8.0 | 0.00 | 0.00 | 0.00 | 29 | 993.6 |
| 20260508035150 | 10 | 297 | 6.4 | 8.0 | 0.00 | 0.00 | 0.00 | 29 | 993.6 |
| 20260508034748 | 10 | 293 | 6.4 | 6.4 | 0.00 | 0.00 | 0.00 | 29 | 993.6 |
| 20260508034348 | 10 | 294 | 6.4 | 9.7 | 0.00 | 0.00 | 0.00 | 29 | 993.6 |
| 20260508033948 | 10 | 289 | 6.4 | 8.0 | 0.00 | 0.00 | 0.00 | 29 | 993.5 |
| 20260508033548 | 10 | 295 | 6.4 | 8.0 | 0.00 | 0.00 | 0.00 | 29 | 993.5 |
| 20260508033148 | 10 | 294 | 6.4 | 8.0 | 0.00 | 0.00 | 0.00 | 29 | 993.5 |
| 20260508032746 | 9 | 305 | 6.4 | 8.0 | 0.00 | 0.00 | 0.00 | 29 | 993.5 |
| 20260508032344 | 9 | 308 | 6.4 | 6.4 | 0.00 | 0.00 | 0.00 | 29 | 993.4 |
| 20260508031944 | 9 | 329 | 4.8 | 6.4 | 0.00 | 0.00 | 0.00 | 30 | 993.4 |
| 20260508031536 | 9 | 324 | 6.4 | 8.0 | 0.00 | 0.00 | 0.00 | 30 | 993.4 |
| 20260508031135 | 9 | 320 | 6.4 | 9.7 | 0.00 | 0.00 | 0.00 | 30 | 993.3 |
| 20260508030732 | 9 | 310 | 6.4 | 8.0 | 0.00 | 0.00 | 0.00 | 29 | 993.3 |
| 20260508030332 | 9 | 303 | 6.4 | 8.0 | 0.00 | 0.00 | 0.00 | 29 | 993.3 |
| 20260508025932 | 9 | 314 | 6.4 | 9.7 | 0.00 | 0.00 | 0.00 | 30 | 993.2 |
| 20260508025532 | 9 | 319 | 6.4 | 8.0 | 0.00 | 0.00 | 0.00 | 29 | 993.2 |
| 20260508025132 | 9 | 306 | 8.0 | 9.7 | 0.00 | 0.00 | 0.00 | 29 | 993.3 |
| 20260508024730 | 9 | 305 | 6.4 | 9.7 | 0.00 | 0.00 | 0.00 | 29 | 993.2 |
| 20260508024330 | 9 | 311 | 6.4 | 9.7 | 0.00 | 0.00 | 0.00 | 29 | 993.1 |
| 20260508023930 | 9 | 312 | 8.0 | 9.7 | 0.00 | 0.00 | 0.00 | 30 | 993.1 |
| 20260508023530 | 10 | 321 | 8.0 | 9.7 | 0.00 | 0.00 | 0.00 | 30 | 993.1 |
| 20260508023130 | 10 | 318 | 6.4 | 9.7 | 0.00 | 0.00 | 0.00 | 30 | 993.1 |
| 20260508022728 | 10 | 315 | 6.4 | 9.7 | 0.00 | 0.00 | 0.00 | 29 | 993.1 |
| 20260508022328 | 10 | 323 | 8.0 | 9.7 | 0.00 | 0.00 | 0.00 | 29 | 993.1 |
| 20260508021928 | 10 | 314 | 8.0 | 9.7 | 0.00 | 0.00 | 0.00 | 29 | 993.1 |
| 20260508021526 | 10 | 322 | 8.0 | 9.7 | 0.00 | 0.00 | 0.00 | 29 | 993.0 |
| 20260508021126 | 10 | 323 | 8.0 | 9.7 | 0.00 | 0.00 | 0.00 | 29 | 993.1 |
| 20260508020724 | 10 | 315 | 4.8 | 6.4 | 0.00 | 0.00 | 0.00 | 29 | 993.1 |
| 20260508020324 | 10 | 305 | 6.4 | 9.7 | 0.00 | 0.00 | 0.00 | 29 | 993.1 |
| 20260508015924 | 10 | 321 | 8.0 | 11.3 | 0.00 | 0.00 | 0.00 | 29 | 993.1 |
| 20260508015524 | 10 | 326 | 6.4 | 8.0 | 0.00 | 0.00 | 0.00 | 29 | 993.1 |
| 20260508015124 | 10 | 315 | 4.8 | 6.4 | 0.00 | 0.00 | 0.00 | 29 | 993.1 |
| 20260508014722 | 10 | 321 | 4.8 | 6.4 | 0.00 | 0.00 | 0.00 | 29 | 993.1 |
| 20260508014322 | 10 | 303 | 8.0 | 9.7 | 0.00 | 0.00 | 0.00 | 29 | 993.1 |
| 20260508013920 | 10 | 306 | 9.7 | 9.7 | 0.00 | 0.00 | 0.00 | 29 | 993.0 |
| 20260508013521 | 10 | 315 | 8.0 | 9.7 | 0.00 | 0.00 | 0.00 | 29 | 993.0 |
| 20260508013120 | 10 | 307 | 9.7 | 11.3 | 0.00 | 0.00 | 0.00 | 29 | 993.0 |
| 20260508012718 | 10 | 313 | 8.0 | 9.7 | 0.00 | 0.00 | 0.00 | 29 | 992.9 |
| 20260508012318 | 10 | 305 | 9.7 | 12.9 | 0.00 | 0.00 | 0.00 | 29 | 993.0 |
| 20260508011918 | 10 | 298 | 11.3 | 12.9 | 0.00 | 0.00 | 0.00 | 28 | 993.0 |
| 20260508011118 | 10 | 298 | 9.7 | 12.9 | 0.00 | 0.00 | 0.00 | 29 | 992.9 |
| 20260508010716 | 10 | 295 | 11.3 | 12.9 | 0.00 | 0.00 | 0.00 | 29 | 992.9 |
| 20260508010314 | 10 | 298 | 9.7 | 12.9 | 0.00 | 0.00 | 0.00 | 29 | 992.9 |
| 20260508005914 | 10 | 295 | 9.7 | 12.9 | 0.00 | 0.00 | 0.00 | 29 | 992.8 |
| 20260508005514 | 10 | 291 | 8.0 | 9.7 | 0.00 | 0.00 | 0.00 | 29 | 992.7 |
| 20260508005114 | 10 | 294 | 8.0 | 9.7 | 0.00 | 0.00 | 0.00 | 29 | 992.7 |
| 20260508004705 | 10 | 299 | 9.7 | 11.3 | 0.00 | 0.00 | 0.00 | 29 | 992.6 |
| 20260508004304 | 10 | 316 | 6.4 | 9.7 | 0.00 | 0.00 | 0.00 | 29 | 992.6 |
| 20260508003903 | 10 | 315 | 6.4 | 9.7 | 0.00 | 0.00 | 0.00 | 29 | 992.5 |
| 20260508003502 | 10 | 311 | 9.7 | 12.9 | 0.00 | 0.00 | 0.00 | 29 | 992.6 |
| 20260508003102 | 10 | 305 | 9.7 | 12.9 | 0.00 | 0.00 | 0.00 | 29 | 992.6 |
| 20260508002700 | 10 | 297 | 8.0 | 9.7 | 0.00 | 0.00 | 0.00 | 29 | 992.6 |
| 20260508002300 | 10 | 303 | 9.7 | 11.3 | 0.00 | 0.00 | 0.00 | 29 | 992.7 |
| 20260508001900 | 10 | 303 | 8.0 | 9.7 | 0.00 | 0.00 | 0.00 | 29 | 992.7 |
| 20260508001500 | 10 | 308 | 6.4 | 8.0 | 0.00 | 0.00 | 0.00 | 29 | 992.8 |
| 20260508001100 | 10 | 310 | 6.4 | 9.7 | 0.00 | 0.00 | 0.00 | 29 | 992.8 |
| 20260508000658 | 10 | 299 | 6.4 | 8.0 | 0.00 | 0.00 | 0.00 | 29 | 992.8 |
| 20260508000258 | 10 | 305 | 6.4 | 9.7 | 0.00 | 0.00 | 0.00 | 29 | 992.8 |
| 20260507235859 | 10 | 288 | 6.4 | 9.7 | 0.00 | 0.00 | 0.00 | 29 | 992.9 |
| 20260507235456 | 11 | 283 | 6.4 | 9.7 | 0.00 | 0.00 | 0.00 | 29 | 992.9 |
| 20260507235056 | 11 | 281 | 6.4 | 8.0 | 0.00 | 0.00 | 0.00 | 29 | 993.0 |
| 20260507234654 | 11 | 270 | 4.8 | 6.4 | 0.00 | 0.00 | 0.00 | 29 | 993.0 |
| 20260507234254 | 11 | 266 | 6.4 | 6.4 | 0.00 | 0.00 | 0.00 | 29 | 993.0 |
| 20260507233854 | 11 | 276 | 4.8 | 6.4 | 0.00 | 0.00 | 0.00 | 29 | 993.0 |
| 20260507233454 | 11 | 268 | 4.8 | 8.0 | 0.00 | 0.00 | 0.00 | 29 | 993.1 |
| 20260507233054 | 11 | 262 | 4.8 | 8.0 | 0.00 | 0.00 | 0.00 | 29 | 993.1 |
| 20260507232652 | 11 | 267 | 6.4 | 8.0 | 0.00 | 0.00 | 0.00 | 29 | 993.1 |
| 20260507232251 | 11 | 270 | 4.8 | 6.4 | 0.00 | 0.00 | 0.00 | 29 | 993.1 |
| 20260507231851 | 10 | 283 | 4.8 | 8.0 | 0.00 | 0.00 | 0.00 | 29 | 993.1 |
| 20260507231452 | 10 | 269 | 8.0 | 9.7 | 0.00 | 0.00 | 0.00 | 29 | 993.2 |
| 20260507231052 | 10 | 278 | 6.4 | 8.0 | 0.00 | 0.00 | 0.00 | 29 | 993.2 |
| 20260507230650 | 10 | 286 | 6.4 | 9.7 | 0.00 | 0.00 | 0.00 | 29 | 993.2 |
| 20260507230249 | 10 | 302 | 8.0 | 9.7 | 0.00 | 0.00 | 0.00 | 29 | 993.1 |
| 20260507225849 | 10 | 299 | 6.4 | 9.7 | 0.00 | 0.00 | 0.00 | 29 | 993.1 |
| 20260507225449 | 10 | 299 | 8.0 | 9.7 | 0.00 | 0.00 | 0.00 | 29 | 993.1 |
| 20260507225049 | 10 | 290 | 8.0 | 9.7 | 0.00 | 0.00 | 0.00 | 29 | 993.1 |
| 20260507224647 | 10 | 305 | 9.7 | 9.7 | 0.00 | 0.00 | 0.00 | 29 | 993.0 |
| 20260507224245 | 10 | 296 | 9.7 | 12.9 | 0.00 | 0.00 | 0.00 | 29 | 993.0 |
| 20260507223845 | 10 | 300 | 8.0 | 9.7 | 0.00 | 0.00 | 0.00 | 29 | 993.1 |
| 20260507223445 | 10 | 299 | 8.0 | 9.7 | 0.00 | 0.00 | 0.00 | 29 | 993.0 |
| 20260507223045 | 10 | 299 | 9.7 | 11.3 | 0.00 | 0.00 | 0.00 | 29 | 993.0 |
| 20260507222643 | 11 | 309 | 8.0 | 9.7 | 0.00 | 0.00 | 0.00 | 29 | 993.0 |
| 20260507222243 | 11 | 285 | 8.0 | 9.7 | 0.00 | 0.00 | 0.00 | 29 | 993.0 |
| 20260507221843 | 11 | 293 | 6.4 | 9.7 | 0.00 | 0.00 | 0.00 | 29 | 993.0 |
| 20260507221436 | 11 | 306 | 8.0 | 9.7 | 0.00 | 0.00 | 0.00 | 29 | 992.9 |
| 20260507221035 | 11 | 308 | 6.4 | 8.0 | 0.00 | 0.00 | 0.00 | 29 | 992.9 |
| 20260507220632 | 11 | 305 | 6.4 | 8.0 | 0.00 | 0.00 | 0.00 | 28 | 992.8 |
| 20260507220231 | 11 | 299 | 9.7 | 12.9 | 0.00 | 0.00 | 0.00 | 28 | 992.8 |
| 20260507215831 | 11 | 299 | 8.0 | 12.9 | 0.00 | 0.00 | 0.00 | 28 | 992.7 |
| 20260507215431 | 11 | 301 | 9.7 | 11.3 | 0.00 | 0.00 | 0.00 | 28 | 992.7 |
| 20260507215031 | 11 | 298 | 9.7 | 12.9 | 0.00 | 0.00 | 0.00 | 28 | 992.7 |
| 20260507214629 | 11 | 297 | 9.7 | 12.9 | 0.00 | 0.00 | 0.00 | 28 | 992.8 |
| 20260507214229 | 11 | 293 | 9.7 | 12.9 | 0.00 | 0.00 | 0.00 | 28 | 992.7 |
| 20260507213829 | 11 | 291 | 9.7 | 12.9 | 0.00 | 0.00 | 0.00 | 28 | 992.8 |
| 20260507213427 | 11 | 291 | 11.3 | 12.9 | 0.00 | 0.00 | 0.00 | 28 | 992.7 |
| 20260507213027 | 11 | 295 | 12.9 | 14.5 | 0.00 | 0.00 | 0.00 | 28 | 992.7 |
| 20260507212625 | 11 | 298 | 9.7 | 11.3 | 0.00 | 0.00 | 0.00 | 28 | 992.7 |
| 20260507212225 | 11 | 292 | 9.7 | 11.3 | 0.00 | 0.00 | 0.00 | 28 | 992.7 |
| 20260507211825 | 11 | 293 | 6.4 | 9.7 | 0.00 | 0.00 | 0.00 | 29 | 992.7 |
| 20260507211425 | 11 | 298 | 8.0 | 9.7 | 0.00 | 0.00 | 0.00 | 29 | 992.7 |
| 20260507211025 | 11 | 303 | 8.0 | 9.7 | 0.00 | 0.00 | 0.00 | 29 | 992.6 |
| 20260507210623 | 11 | 298 | 8.0 | 9.7 | 0.00 | 0.00 | 0.00 | 29 | 992.6 |
| 20260507210223 | 11 | 289 | 6.4 | 9.7 | 0.00 | 0.00 | 0.00 | 29 | 992.6 |
| 20260507205823 | 11 | 296 | 8.0 | 8.0 | 0.00 | 0.00 | 0.00 | 29 | 992.6 |
| 20260507205422 | 11 | 289 | 8.0 | 9.7 | 0.00 | 0.00 | 0.00 | 29 | 992.5 |
| 20260507204620 | 11 | 290 | 6.4 | 9.7 | 0.00 | 0.00 | 0.00 | 29 | 992.4 |
| 20260507204220 | 11 | 300 | 8.0 | 9.7 | 0.00 | 0.00 | 0.00 | 29 | 992.4 |
| 20260507203820 | 11 | 305 | 9.7 | 11.3 | 0.00 | 0.00 | 0.00 | 29 | 992.4 |
| 20260507203420 | 11 | 308 | 9.7 | 11.3 | 0.00 | 0.00 | 0.00 | 29 | 992.4 |
| 20260507203020 | 11 | 310 | 8.0 | 9.7 | 0.00 | 0.00 | 0.00 | 29 | 992.4 |
| 20260507202618 | 11 | 300 | 8.0 | 11.3 | 0.00 | 0.00 | 0.00 | 29 | 992.4 |
| 20260507202216 | 11 | 316 | 4.8 | 8.0 | 0.00 | 0.00 | 0.00 | 29 | 992.4 |
| 20260507201816 | 11 | 308 | 4.8 | 6.4 | 0.00 | 0.00 | 0.00 | 29 | 992.3 |
| 20260507201416 | 11 | 319 | 3.2 | 4.8 | 0.00 | 0.00 | 0.00 | 29 | 992.3 |
| 20260507201016 | 11 | 315 | 1.6 | 3.2 | 0.00 | 0.00 | 0.00 | 29 | 992.3 |
| 20260507200614 | 10 | 324 | 3.2 | 6.4 | 0.00 | 0.00 | 0.00 | 29 | 992.2 |
| 20260507195814 | 10 | 292 | 6.4 | 11.3 | 0.00 | 0.00 | 0.00 | 29 | 992.1 |
| 20260507195414 | 10 | 283 | 9.7 | 11.3 | 0.00 | 0.00 | 0.00 | 29 | 992.0 |
| 20260507195014 | 10 | 299 | 11.3 | 12.9 | 0.00 | 0.00 | 0.00 | 29 | 991.8 |
| 20260507194605 | 10 | 312 | 12.9 | 16.1 | 0.00 | 0.00 | 0.00 | 29 | 991.7 |
| 20260507194204 | 10 | 329 | 16.1 | 19.3 | 0.00 | 0.00 | 0.00 | 29 | 991.6 |
| 20260507193804 | 11 | 330 | 16.1 | 17.7 | 0.00 | 0.00 | 0.00 | 29 | 991.8 |
| 20260507193403 | 11 | 329 | 14.5 | 19.3 | 0.00 | 0.00 | 0.00 | 29 | 992.0 |
| 20260507193003 | 11 | 308 | 11.3 | 16.1 | 0.00 | 0.00 | 0.00 | 29 | 992.1 |
| 20260507192601 | 11 | 290 | 12.9 | 14.5 | 0.00 | 0.00 | 0.00 | 29 | 992.2 |
| 20260507192201 | 11 | 282 | 12.9 | 14.5 | 0.00 | 0.00 | 0.00 | 29 | 992.1 |
| 20260507191801 | 11 | 266 | 11.3 | 14.5 | 0.00 | 0.00 | 0.00 | 29 | 992.0 |
| 20260507191358 | 11 | 269 | 11.3 | 12.9 | 0.00 | 0.00 | 0.00 | 29 | 991.9 |
| 20260507190958 | 11 | 281 | 9.7 | 12.9 | 0.00 | 0.00 | 0.00 | 29 | 991.9 |
| 20260507190556 | 11 | 274 | 9.7 | 12.9 | 0.00 | 0.00 | 0.00 | 29 | 991.8 |
| 20260507190157 | 11 | 280 | 12.9 | 16.1 | 0.00 | 0.00 | 0.00 | 29 | 991.7 |
| 20260507185756 | 11 | 286 | 14.5 | 19.3 | 0.00 | 0.00 | 0.00 | 29 | 991.7 |
| 20260507185356 | 11 | 289 | 14.5 | 17.7 | 0.00 | 0.00 | 0.00 | 29 | 991.6 |
| 20260507184956 | 11 | 292 | 16.1 | 17.7 | 0.00 | 0.00 | 0.00 | 29 | 991.6 |
| 20260507184554 | 11 | 282 | 12.9 | 17.7 | 0.00 | 0.00 | 0.00 | 29 | 991.5 |
| 20260507184154 | 11 | 297 | 16.1 | 19.3 | 0.00 | 0.00 | 0.00 | 29 | 991.4 |
| 20260507183753 | 11 | 289 | 14.5 | 17.7 | 0.00 | 0.00 | 0.00 | 28 | 991.3 |
| 20260507183353 | 11 | 281 | 14.5 | 17.7 | 0.00 | 0.00 | 0.00 | 28 | 991.2 |
| 20260507182953 | 12 | 288 | 16.1 | 20.9 | 0.00 | 0.00 | 0.00 | 28 | 991.2 |
| 20260507182551 | 12 | 294 | 16.1 | 19.3 | 0.00 | 0.00 | 0.00 | 28 | 991.2 |
| 20260507182152 | 12 | 297 | 16.1 | 19.3 | 0.00 | 0.00 | 0.00 | 28 | 991.1 |
| 20260507181752 | 12 | 309 | 16.1 | 19.3 | 0.00 | 0.00 | 0.00 | 28 | 990.9 |
| 20260507181351 | 12 | 293 | 17.7 | 20.9 | 0.00 | 0.00 | 0.00 | 28 | 991.0 |
| 20260507180951 | 12 | 285 | 16.1 | 22.5 | 0.00 | 0.00 | 0.00 | 29 | 991.0 |
| 20260507180549 | 12 | 277 | 14.5 | 16.1 | 0.00 | 0.00 | 0.00 | 28 | 991.0 |
| 20260507180147 | 12 | 287 | 14.5 | 17.7 | 0.00 | 0.00 | 0.00 | 28 | 990.9 |
| 20260507175747 | 12 | 293 | 17.7 | 19.3 | 0.00 | 0.00 | 0.00 | 28 | 990.8 |
| 20260507175347 | 12 | 290 | 17.7 | 22.5 | 0.00 | 0.00 | 0.00 | 28 | 990.8 |
| 20260507174947 | 12 | 296 | 19.3 | 20.9 | 0.00 | 0.00 | 0.00 | 28 | 990.6 |
| 20260507174545 | 13 | 298 | 17.7 | 20.9 | 0.00 | 0.00 | 0.00 | 28 | 990.5 |
| 20260507174145 | 13 | 291 | 19.3 | 22.5 | 0.00 | 0.00 | 0.00 | 28 | 990.5 |
| 20260507173745 | 13 | 292 | 19.3 | 22.5 | 0.00 | 0.00 | 0.00 | 29 | 990.5 |
| 20260507172945 | 13 | 273 | 16.1 | 19.3 | 0.00 | 0.00 | 0.00 | 28 | 990.3 |
| 20260507172543 | 13 | 282 | 16.1 | 19.3 | 0.00 | 0.00 | 0.00 | 29 | 990.2 |
| 20260507172143 | 13 | 293 | 16.1 | 17.7 | 0.00 | 0.00 | 0.00 | 29 | 990.1 |
| 20260507171744 | 13 | 301 | 16.1 | 20.9 | 0.00 | 0.00 | 0.00 | 29 | 990.0 |
| 20260507171336 | 13 | 296 | 16.1 | 19.3 | 0.00 | 0.00 | 0.00 | 29 | 989.9 |
| 20260507170935 | 14 | 299 | 14.5 | 17.7 | 0.00 | 0.00 | 0.00 | 29 | 990.0 |
| 20260507170532 | 14 | 289 | 17.7 | 20.9 | 0.00 | 0.00 | 0.00 | 29 | 990.0 |
| 20260507170131 | 14 | 279 | 6.4 | 9.7 | 0.00 | 0.00 | 0.00 | 29 | 989.8 |
| 20260507165731 | 14 | 266 | 8.0 | 11.3 | 0.00 | 0.00 | 0.00 | 29 | 989.7 |
| 20260507165329 | 14 | 259 | 8.0 | 12.9 | 0.00 | 0.00 | 0.00 | 29 | 989.7 |
| 20260507164928 | 14 | 256 | 9.7 | 12.9 | 0.00 | 0.00 | 0.00 | 29 | 989.5 |
| 20260507164526 | 14 | 270 | 9.7 | 12.9 | 0.00 | 0.00 | 0.00 | 29 | 989.3 |
| 20260507164126 | 14 | 274 | 12.9 | 17.7 | 0.00 | 0.00 | 0.00 | 29 | 989.2 |
| 20260507163726 | 14 | 273 | 16.1 | 24.1 | 0.00 | 0.00 | 0.00 | 29 | 989.0 |
| 20260507163326 | 14 | 270 | 17.7 | 20.9 | 0.00 | 0.00 | 0.00 | 29 | 988.9 |
| 20260507162926 | 15 | 275 | 19.3 | 27.4 | 0.00 | 0.00 | 0.00 | 29 | 988.9 |
| 20260507162524 | 15 | 283 | 16.1 | 22.5 | 0.00 | 0.00 | 0.00 | 29 | 989.0 |
| 20260507162124 | 15 | 306 | 16.1 | 19.3 | 0.00 | 0.00 | 0.00 | 29 | 989.1 |
| 20260507161724 | 16 | 277 | 11.3 | 16.1 | 0.00 | 0.00 | 0.00 | 28 | 989.2 |
| 20260507161324 | 16 | 263 | 14.5 | 17.7 | 0.00 | 0.00 | 0.00 | 96 | 989.4 |
| 20260507160925 | 16 | 262 | 14.5 | 20.9 | 0.00 | 0.00 | 0.00 | 93 | 989.4 |
| 20260507160521 | 16 | 262 | 12.9 | 16.1 | 0.00 | 0.00 | 0.00 | 89 | 989.3 |
| 20260507160121 | 17 | 259 | 12.9 | 16.1 | 0.00 | 0.00 | 0.00 | 86 | 989.2 |
| 20260507155721 | 17 | 244 | 16.1 | 22.5 | 0.00 | 0.00 | 0.00 | 83 | 989.1 |
| 20260507155321 | 17 | 254 | 11.3 | 19.3 | 0.00 | 0.00 | 0.00 | 82 | 989.1 |
| 20260507154921 | 17 | 262 | 11.3 | 16.1 | 0.00 | 0.00 | 0.00 | 82 | 988.9 |
| 20260507154519 | 17 | 262 | 12.9 | 17.7 | 0.00 | 0.00 | 0.00 | 81 | 988.8 |
| 20260507154117 | 17 | 263 | 16.1 | 20.9 | 0.00 | 0.00 | 0.00 | 81 | 988.6 |
| 20260507153718 | 17 | 274 | 16.1 | 20.9 | 0.00 | 0.00 | 0.00 | 80 | 988.4 |
| 20260507153316 | 17 | 280 | 19.3 | 24.1 | 0.00 | 0.00 | 0.00 | 78 | 988.3 |
| 20260507152514 | 17 | 269 | 20.9 | 25.7 | 0.00 | 0.00 | 0.00 | 76 | 988.2 |
| 20260507152114 | 18 | 270 | 17.7 | 20.9 | 0.00 | 0.00 | 0.00 | 75 | 988.3 |
| 20260507151715 | 18 | 270 | 20.9 | 22.5 | 0.00 | 0.00 | 0.00 | 73 | 988.3 |
| 20260507151351 | 18 | 275 | 16.1 | 22.5 | 0.00 | 0.00 | 0.00 | 70 | 988.3 |
| 20260507151315 | 18 | 281 | 16.1 | 22.5 | 0.00 | 0.00 | 0.00 | 72 | 988.3 |
| 20260507150915 | 18 | 267 | 17.7 | 20.9 | 0.00 | 0.00 | 0.00 | 71 | 988.3 |
| 20260507150513 | 18 | 275 | 16.1 | 22.5 | 0.00 | 0.00 | 0.00 | 70 | 988.3 |
| 20260507150113 | 19 | 285 | 12.9 | 17.7 | 0.00 | 0.00 | 0.00 | 68 | 988.2 |
| 20260507145713 | 19 | 283 | 16.1 | 19.3 | 0.00 | 0.00 | 0.00 | 66 | 988.1 |
| 20260507145313 | 20 | 268 | 16.1 | 22.5 | 0.00 | 0.00 | 0.00 | 65 | 988.0 |
| 20260507144913 | 20 | 262 | 20.9 | 25.7 | 0.00 | 0.00 | 0.00 | 63 | 988.0 |
| 20260507144503 | 19 | 283 | 20.9 | 27.4 | 0.00 | 0.00 | 0.00 | 62 | 988.1 |
| 20260507144103 | 19 | 305 | 16.1 | 22.5 | 0.00 | 0.00 | 0.00 | 63 | 988.1 |
| 20260507143702 | 20 | 303 | 19.3 | 25.7 | 0.00 | 0.00 | 0.00 | 63 | 988.1 |
| 20260507143259 | 20 | 307 | 17.7 | 22.5 | 0.00 | 0.00 | 0.00 | 64 | 988.0 |
| 20260507142859 | 20 | 299 | 22.5 | 29.0 | 0.00 | 0.00 | 0.00 | 63 | 988.0 |
| 20260507142456 | 20 | 289 | 16.1 | 20.9 | 0.00 | 0.00 | 0.00 | 62 | 987.9 |
| 20260507142056 | 20 | 282 | 16.1 | 20.9 | 0.00 | 0.00 | 0.00 | 62 | 987.9 |
| 20260507141657 | 20 | 283 | 19.3 | 24.1 | 0.00 | 0.00 | 0.00 | 62 | 987.9 |
| 20260507141257 | 20 | 310 | 14.5 | 17.7 | 0.00 | 0.00 | 0.00 | 63 | 988.0 |
| 20260507140857 | 20 | 292 | 19.3 | 25.7 | 0.00 | 0.00 | 0.00 | 64 | 988.0 |
| 20260507140455 | 20 | 316 | 19.3 | 20.9 | 0.00 | 0.00 | 0.00 | 64 | 988.0 |
| 20260507140055 | 20 | 283 | 16.1 | 24.1 | 0.00 | 0.00 | 0.00 | 63 | 987.9 |
| 20260507135655 | 20 | 272 | 16.1 | 22.5 | 0.00 | 0.00 | 0.00 | 64 | 987.9 |
| 20260507135255 | 20 | 298 | 14.5 | 19.3 | 0.00 | 0.00 | 0.00 | 64 | 987.9 |
| 20260507134855 | 20 | 291 | 14.5 | 19.3 | 0.00 | 0.00 | 0.00 | 64 | 988.0 |
| 20260507134453 | 20 | 299 | 16.1 | 20.9 | 0.00 | 0.00 | 0.00 | 64 | 988.0 |
| 20260507133653 | 20 | 269 | 12.9 | 16.1 | 0.00 | 0.00 | 0.00 | 64 | 988.0 |
| 20260507133253 | 19 | 267 | 12.9 | 16.1 | 0.00 | 0.00 | 0.00 | 64 | 988.0 |
| 20260507132853 | 19 | 282 | 14.5 | 19.3 | 0.00 | 0.00 | 0.00 | 65 | 988.0 |
| 20260507132451 | 19 | 268 | 14.5 | 17.7 | 0.00 | 0.00 | 0.00 | 64 | 988.0 |
| 20260507132049 | 20 | 283 | 16.1 | 19.3 | 0.00 | 0.00 | 0.00 | 64 | 988.0 |
| 20260507131649 | 20 | 281 | 17.7 | 20.9 | 0.00 | 0.00 | 0.00 | 64 | 988.1 |
| 20260507131249 | 20 | 299 | 19.3 | 22.5 | 0.00 | 0.00 | 0.00 | 62 | 988.1 |
| 20260507130849 | 20 | 284 | 16.1 | 24.1 | 0.00 | 0.00 | 0.00 | 61 | 988.0 |
| 20260507130447 | 20 | 292 | 14.5 | 22.5 | 0.00 | 0.00 | 0.00 | 58 | 987.9 |
| 20260507130047 | 20 | 271 | 6.4 | 12.9 | 0.00 | 0.00 | 0.00 | 58 | 987.9 |
| 20260507125647 | 20 | 276 | 11.3 | 19.3 | 0.00 | 0.00 | 0.00 | 58 | 987.9 |
| 20260507125247 | 20 | 255 | 12.9 | 19.3 | 0.00 | 0.00 | 0.00 | 60 | 987.8 |
| 20260507124847 | 20 | 263 | 8.0 | 16.1 | 0.00 | 0.00 | 0.00 | 61 | 987.9 |
| 20260507124445 | 20 | 262 | 12.9 | 17.7 | 0.00 | 0.00 | 0.00 | 62 | 987.9 |
| 20260507124045 | 19 | 248 | 8.0 | 16.1 | 0.00 | 0.00 | 0.00 | 62 | 987.9 |
| 20260507123645 | 19 | 282 | 9.7 | 12.9 | 0.00 | 0.00 | 0.00 | 63 | 987.9 |
| 20260507123245 | 19 | 273 | 9.7 | 14.5 | 0.00 | 0.00 | 0.00 | 63 | 988.0 |
| 20260507122845 | 19 | 276 | 12.9 | 16.1 | 0.00 | 0.00 | 0.00 | 65 | 987.9 |
| 20260507122443 | 19 | 266 | 11.3 | 19.3 | 0.00 | 0.00 | 0.00 | 65 | 988.0 |
| 20260507122043 | 19 | 281 | 12.9 | 17.7 | 0.00 | 0.00 | 0.00 | 65 | 988.0 |
| 20260507121644 | 20 | 290 | 16.1 | 25.7 | 0.00 | 0.00 | 0.00 | 65 | 988.1 |
| 20260507121234 | 20 | 291 | 17.7 | 24.1 | 0.00 | 0.00 | 0.00 | 65 | 988.2 |
| 20260507120833 | 20 | 266 | 12.9 | 17.7 | 0.00 | 0.00 | 0.00 | 65 | 988.2 |
| 20260507120430 | 20 | 255 | 17.7 | 24.1 | 0.00 | 0.00 | 0.00 | 64 | 988.2 |
| 20260507120029 | 20 | 261 | 17.7 | 25.7 | 0.00 | 0.00 | 0.00 | 63 | 988.2 |
| 20260507115629 | 20 | 260 | 12.9 | 16.1 | 0.00 | 0.00 | 0.00 | 61 | 988.1 |
| 20260507115229 | 20 | 261 | 12.9 | 22.5 | 0.00 | 0.00 | 0.00 | 61 | 988.1 |
| 20260507114829 | 20 | 245 | 12.9 | 19.3 | 0.00 | 0.00 | 0.00 | 59 | 988.0 |
| 20260507114427 | 20 | 247 | 16.1 | 22.5 | 0.00 | 0.00 | 0.00 | 58 | 988.0 |
| 20260507114027 | 20 | 253 | 16.1 | 24.1 | 0.00 | 0.00 | 0.00 | 58 | 988.0 |
| 20260507113627 | 20 | 239 | 14.5 | 20.9 | 0.00 | 0.00 | 0.00 | 57 | 988.0 |
| 20260507113227 | 20 | 234 | 9.7 | 17.7 | 0.00 | 0.00 | 0.00 | 57 | 987.9 |
| 20260507112826 | 20 | 212 | 16.1 | 25.7 | 0.00 | 0.00 | 0.00 | 56 | 987.9 |
| 20260507112424 | 20 | 236 | 12.9 | 22.5 | 0.00 | 0.00 | 0.00 | 59 | 987.9 |
| 20260507112024 | 20 | 244 | 12.9 | 19.3 | 0.00 | 0.00 | 0.00 | 60 | 987.8 |
| 20260507111624 | 20 | 250 | 14.5 | 19.3 | 0.00 | 0.00 | 0.00 | 60 | 987.8 |
| 20260507111224 | 20 | 266 | 14.5 | 24.1 | 0.00 | 0.00 | 0.00 | 61 | 987.8 |
| 20260507110824 | 20 | 252 | 14.5 | 24.1 | 0.00 | 0.00 | 0.00 | 60 | 987.8 |
| 20260507110422 | 20 | 248 | 14.5 | 22.5 | 0.00 | 0.00 | 0.00 | 60 | 987.8 |
| 20260507110020 | 20 | 248 | 17.7 | 22.5 | 0.00 | 0.00 | 0.00 | 61 | 987.7 |
| 20260507105619 | 20 | 239 | 11.3 | 20.9 | 0.00 | 0.00 | 0.00 | 60 | 987.7 |
| 20260507105219 | 20 | 228 | 16.1 | 25.7 | 0.00 | 0.00 | 0.00 | 61 | 987.6 |
| 20260507104819 | 19 | 228 | 12.9 | 19.3 | 0.00 | 0.00 | 0.00 | 60 | 987.6 |
| 20260507104417 | 19 | 219 | 16.1 | 25.7 | 0.00 | 0.00 | 0.00 | 60 | 987.6 |
| 20260507104017 | 19 | 211 | 14.5 | 20.9 | 0.00 | 0.00 | 0.00 | 61 | 987.6 |
| 20260507103616 | 19 | 197 | 12.9 | 19.3 | 0.00 | 0.00 | 0.00 | 62 | 987.6 |
| 20260507103217 | 19 | 193 | 14.5 | 22.5 | 0.00 | 0.00 | 0.00 | 63 | 987.6 |
| 20260507102817 | 19 | 238 | 16.1 | 22.5 | 0.00 | 0.00 | 0.00 | 62 | 987.7 |
| 20260507102415 | 19 | 205 | 11.3 | 17.7 | 0.00 | 0.00 | 0.00 | 64 | 987.7 |
| 20260507102015 | 18 | 236 | 14.5 | 24.1 | 0.00 | 0.00 | 0.00 | 64 | 987.6 |
| 20260507101214 | 18 | 203 | 8.0 | 17.7 | 0.00 | 0.00 | 0.00 | 67 | 987.6 |
| 20260507100814 | 18 | 203 | 11.3 | 22.5 | 0.00 | 0.00 | 0.00 | 69 | 987.7 |
| 20260507100412 | 18 | 223 | 11.3 | 17.7 | 0.00 | 0.00 | 0.00 | 69 | 987.7 |
| 20260507100012 | 18 | 214 | 14.5 | 20.9 | 0.00 | 0.00 | 0.00 | 70 | 987.7 |
| 20260507095210 | 18 | 198 | 6.4 | 16.1 | 0.00 | 0.00 | 0.00 | 71 | 987.7 |
| 20260507094810 | 18 | 237 | 14.5 | 22.5 | 0.00 | 0.00 | 0.00 | 72 | 987.6 |
| 20260507094400 | 18 | 225 | 16.1 | 20.9 | 0.00 | 0.00 | 0.00 | 71 | 987.6 |
| 20260507093959 | 18 | 222 | 12.9 | 17.7 | 0.00 | 0.00 | 0.00 | 70 | 987.6 |
| 20260507093559 | 18 | 222 | 11.3 | 16.1 | 0.00 | 0.00 | 0.00 | 71 | 987.5 |
| 20260507093158 | 18 | 213 | 11.3 | 14.5 | 0.00 | 0.00 | 0.00 | 71 | 987.5 |
| 20260507092758 | 18 | 218 | 9.7 | 16.1 | 0.00 | 0.00 | 0.00 | 70 | 987.5 |
| 20260507092356 | 18 | 208 | 9.7 | 14.5 | 0.00 | 0.00 | 0.00 | 71 | 987.5 |
| 20260507091956 | 18 | 236 | 4.8 | 12.9 | 0.00 | 0.00 | 0.00 | 72 | 987.4 |
| 20260507091556 | 18 | 214 | 9.7 | 12.9 | 0.00 | 0.00 | 0.00 | 71 | 987.4 |
| 20260507091156 | 18 | 225 | 8.0 | 16.1 | 0.00 | 0.00 | 0.00 | 72 | 987.3 |
| 20260507090756 | 18 | 249 | 4.8 | 8.0 | 0.00 | 0.00 | 0.00 | 73 | 987.3 |
| 20260507090354 | 18 | 268 | 8.0 | 12.9 | 0.00 | 0.00 | 0.00 | 73 | 987.3 |
| 20260507085954 | 18 | 255 | 9.7 | 12.9 | 0.00 | 0.00 | 0.00 | 73 | 987.2 |
| 20260507085554 | 18 | 250 | 12.9 | 17.7 | 0.00 | 0.00 | 0.00 | 71 | 987.2 |
| 20260507085154 | 18 | 248 | 9.7 | 14.5 | 0.00 | 0.00 | 0.00 | 71 | 987.2 |
| 20260507084754 | 18 | 242 | 11.3 | 17.7 | 0.00 | 0.00 | 0.00 | 71 | 987.1 |
| 20260507084352 | 18 | 226 | 8.0 | 12.9 | 0.00 | 0.00 | 0.00 | 71 | 987.1 |
| 20260507083950 | 18 | 201 | 4.8 | 8.0 | 0.00 | 0.00 | 0.00 | 72 | 987.1 |
| 20260507083550 | 18 | 233 | 11.3 | 20.9 | 0.00 | 0.00 | 0.00 | 71 | 987.1 |
| 20260507082750 | 18 | 228 | 6.4 | 11.3 | 0.00 | 0.00 | 0.00 | 72 | 987.0 |
| 20260507082348 | 18 | 237 | 6.4 | 9.7 | 0.00 | 0.00 | 0.00 | 73 | 986.9 |
| 20260507081948 | 18 | 251 | 8.0 | 12.9 | 0.00 | 0.00 | 0.00 | 73 | 986.9 |
| 20260507081548 | 18 | 263 | 6.4 | 11.3 | 0.00 | 0.00 | 0.00 | 73 | 986.8 |
| 20260507081148 | 18 | 254 | 6.4 | 11.3 | 0.00 | 0.00 | 0.00 | 73 | 986.8 |
| 20260507080748 | 18 | 251 | 6.4 | 9.7 | 0.00 | 0.00 | 0.00 | 73 | 986.7 |
| 20260507080346 | 17 | 238 | 4.8 | 9.7 | 0.00 | 0.00 | 0.00 | 74 | 986.7 |
| 20260507075947 | 17 | 167 | 6.4 | 9.7 | 0.00 | 0.00 | 0.00 | 75 | 986.7 |
| 20260507075547 | 17 | 234 | 6.4 | 11.3 | 0.00 | 0.00 | 0.00 | 75 | 986.7 |
| 20260507075147 | 17 | 231 | 3.2 | 8.0 | 0.00 | 0.00 | 0.00 | 75 | 986.6 |
| 20260507074345 | 17 | 210 | 6.4 | 12.9 | 0.00 | 0.00 | 0.00 | 76 | 986.5 |
| 20260507073945 | 17 | 282 | 4.8 | 9.7 | 0.00 | 0.00 | 0.00 | 78 | 986.5 |
| 20260507073545 | 17 | 213 | 1.6 | 4.8 | 0.00 | 0.00 | 0.00 | 78 | 986.5 |
| 20260507073142 | 17 | 225 | 6.4 | 9.7 | 0.00 | 0.00 | 0.00 | 78 | 986.4 |
| 20260507072743 | 17 | 250 | 3.2 | 6.4 | 0.00 | 0.00 | 0.00 | 79 | 986.4 |
| 20260507072341 | 17 | 269 | 3.2 | 4.8 | 0.00 | 0.00 | 0.00 | 79 | 986.4 |
| 20260507071941 | 17 | 301 | 1.6 | 3.2 | 0.00 | 0.00 | 0.00 | 80 | 986.4 |
| 20260507071541 | 17 | 242 | 3.2 | 4.8 | 0.00 | 0.00 | 0.00 | 81 | 986.4 |
| 20260507071133 | 17 | 243 | 3.2 | 6.4 | 0.00 | 0.00 | 0.00 | 81 | 986.4 |
| 20260507070732 | 17 | 258 | 1.6 | 6.4 | 0.00 | 0.00 | 0.00 | 81 | 986.3 |
| 20260507070330 | 17 | 253 | 4.8 | 9.7 | 0.00 | 0.00 | 0.00 | 81 | 986.3 |
| 20260507065929 | 17 | 206 | 1.6 | 9.7 | 0.00 | 0.00 | 0.00 | 82 | 986.3 |
| 20260507065529 | 17 | 264 | 1.6 | 3.2 | 0.00 | 0.00 | 0.00 | 83 | 986.2 |
| 20260507065128 | 17 | 284 | 1.6 | 4.8 | 0.00 | 0.00 | 0.00 | 84 | 986.3 |
| 20260507064728 | 17 | 30 | 1.6 | 3.2 | 0.00 | 0.00 | 0.00 | 85 | 986.2 |
| 20260507064326 | 16 | 47 | 3.2 | 3.2 | 0.00 | 0.00 | 0.00 | 85 | 986.2 |
| 20260507063926 | 16 | 47 | 3.2 | 4.8 | 0.00 | 0.00 | 0.00 | 86 | 986.2 |
| 20260507063526 | 16 | 236 | 1.6 | 1.6 | 0.00 | 0.00 | 0.00 | 86 | 986.2 |
| 20260507063126 | 16 | 332 | 3.2 | 6.4 | 0.00 | 0.00 | 0.00 | 87 | 986.2 |
| 20260507062726 | 16 | 41 | 3.2 | 4.8 | 0.00 | 0.00 | 0.00 | 89 | 986.2 |
| 20260507062324 | 16 | 296 | 1.6 | 3.2 | 0.00 | 0.00 | 0.00 | 89 | 986.2 |
| 20260507061921 | 16 | 273 | 1.6 | 3.2 | 0.00 | 0.00 | 0.00 | 90 | 986.2 |
| 20260507061521 | 16 | 219 | 1.6 | 1.6 | 0.00 | 0.00 | 0.00 | 91 | 986.1 |
| 20260507061121 | 15 | 196 | 3.2 | 4.8 | 0.00 | 0.00 | 0.00 | 92 | 986.0 |
| 20260507060721 | 15 | 196 | 4.8 | 8.0 | 0.00 | 0.00 | 0.00 | 93 | 986.1 |
| 20260507060319 | 15 | 219 | 3.2 | 6.4 | 0.00 | 0.00 | 0.00 | 94 | 986.1 |
| 20260507055919 | 15 | 207 | 4.8 | 8.0 | 0.00 | 0.00 | 0.00 | 94 | 986.0 |
| 20260507055518 | 15 | 231 | 4.8 | 8.0 | 0.00 | 0.00 | 0.00 | 96 | 986.0 |
| 20260507055118 | 15 | 210 | 3.2 | 6.4 | 0.00 | 0.00 | 0.00 | 97 | 986.0 |
| 20260507054718 | 15 | 217 | 1.6 | 4.8 | 0.00 | 0.00 | 0.00 | 97 | 986.0 |
| 20260507054316 | 15 | 226 | 3.2 | 4.8 | 0.00 | 0.00 | 0.00 | 97 | 985.9 |